Ordot, Guam
Current Conditions -  °F | °C
As of 3:54 AM on Saturday 29 Nov 2014 (Local Time) from PGUM Reporting Station
Clear Clear  
Wind Chill: 27°   Ceiling: Unl
Heat Index: 29°   Visibility: 10mi
Dew Point: 22°   Wind: 16mph
Humidity: 72%   Direction: 60°ENE
Pressure: 29.85"   Gusts: NA
Location:  13.4744°N, 144.7478°E
Report Text: PGUM 281754Z 06014KT 10SM CLR 27/22 A2985 RMK AO2 SLP098 60000 T02720217 10278 20267 56007
Loading
Personal Weather Stations






























Interactive Weather Map New forecast layout! Learn more

10-Day Weather Forecast

Advertisements
Track Severe Weather on mobile